Gray Army Air Field
KGRF : now visible

Airfield :











YOU CAN JOIN US ON...

 
LOGIN :

Register | Disclaimer

   EN    FR    IT 

 









Legend :    VFR   Marginal VFR   IFR   Intensive IFR   Very Intensive IFR
Visi :
Ceiling :
>= 8 km
>= 3000ft
5 to 8 km
1000 to 3000 ft
1500m to 5 km
500 to 1000 ft
800 to 1500m
200 to 500 ft
< 800m
< 200 ft
Symbols :   Thunderstorms  Fog  Heavy snow  Heavy precipitations  Wind > 20 kt






- Airport Elevation : 300 ft


KGRF - Gray Army Air Field

CURRENT METAR :
  • 200558Z 22003KT 10SM CLR 09/06 A3025 RMK AO2A SLP249 T00930055 10147 20091 50009

EXPIRED METARs :
  • 200458Z 19004KT 10SM OVC060 11/05 A3025 RMK AO2A SLP248 T01080051
  • 200358Z 01003KT 10SM FEW045 BKN085 12/02 A3024 RMK AO2A SLP245 T01200016

TAF TAF KGRF
Valid from the 20 at 05:00 until the 21 at 11:00 UTC


200500Z 2005/2111 34005KT 9999 SCT040 BKN080 QNH3024INS
BECMG 2012/2013 29007KT 4800 BR BKN015 BKN050 620404 QNH3026INS
BECMG 2015/2016 29007KT 9999 NSW BKN035 620402 QNH3027INS
BECMG 2021/2022 29007KT 9999 SCT035 QNH3021INS TX15/2023Z TN06/2011Z
KZSE FIR / North America



MET'MAP, your aeronautical weather chart ! - Copyright ORBIFLY December 2007 - Disclaimer

ORBIFLY MET'MAP TEAM :

Programming & Development : Alexandra Zaïnal
Original concept : Baudouin d'Aumeries
Technical & hardware support : Manuel Goepfert
Assistance : Marc-Olivier Méhu

Contact : metmap@orbifly.com




SOURCES & CREDITS :

   NOAA       Earth
Advisory